Vineyard Haven, Massachusetts
Current Conditions -  °F | °C
As of 6:53 AM on Thursday 27 Nov 2014 (Local Time) from KMVY Reporting Station
Overcast Overcast  
Wind Chill: 28°   Ceiling: 1600
Heat Index: 35°   Visibility: 10mi
Dew Point: 32°   Wind: 9mph
Humidity: 89%   Direction: 330°NNW
Pressure: 29.86"   Gusts: NA
Location:  41.46°N, 70.61°W
Report Text: KMVY 271153Z 33008KT 10SM OVC016 02/00 A2986 RMK AO2 PRESRR SLP110 60002 70210 I6000 T00170000 10039 20011 53036
Loading
Personal Weather Stations






























Interactive Weather Map New forecast layout! Learn more

10-Day Weather Forecast

Advertisements
Track Severe Weather on mobile